Time;durP1;ratioP1;P1;durP2;ratioP2;P2;SDS_P1;SDS_P2;PMS_P1;PMS_P2;Temp;Humidity;BMP_temperature;BMP_pressure;BME280_temperature;BME280_humidity;BME280_pressure;Samples;Min_cycle;Max_cycle;Signal;HPM_P1;HPM_P2
2023/06/22 00:02:15;;;;;;;12.13;11.13;;;23.40;99.90;;;;;;5049930;28;20439;-62
2023/06/22 00:04:45;;;;;;;12.43;11.33;;;23.40;99.90;;;;;;5050750;28;20562;-62
2023/06/22 00:07:11;;;;;;;13.10;12.10;;;23.30;99.90;;;;;;5039692;28;20507;-62
2023/06/22 00:09:36;;;;;;;13.43;12.33;;;23.30;99.90;;;;;;5049685;28;20224;-62
2023/06/22 00:12:02;;;;;;;12.60;11.60;;;23.20;99.90;;;;;;5049705;28;20189;-61
2023/06/22 00:14:28;;;;;;;12.53;11.43;;;23.20;99.90;;;;;;5049507;28;20177;-61
2023/06/22 00:16:57;;;;;;;12.57;11.40;;;23.20;99.90;;;;;;5040882;28;20409;-62
2023/06/22 00:19:25;;;;;;;12.80;11.70;;;23.30;99.90;;;;;;5053694;28;20247;-61
2023/06/22 00:21:53;;;;;;;11.87;10.87;;;23.30;99.90;;;;;;5052440;28;20480;-62
2023/06/22 00:24:20;;;;;;;12.07;11.07;;;23.30;99.90;;;;;;5053523;28;20452;-62
2023/06/22 00:26:49;;;;;;;11.83;11.03;;;23.30;99.90;;;;;;5052945;28;20424;-62
2023/06/22 00:29:15;;;;;;;12.80;11.80;;;23.30;99.90;;;;;;5052362;28;20420;-63
2023/06/22 00:31:41;;;;;;;12.90;11.90;;;23.30;99.90;;;;;;5052794;28;20478;-62
2023/06/22 00:34:08;;;;;;;13.00;11.90;;;23.30;99.90;;;;;;5054126;28;20687;-63
2023/06/22 00:36:35;;;;;;;12.37;11.40;;;23.30;99.90;;;;;;5031297;28;20265;-62
2023/06/22 00:39:01;;;;;;;14.10;12.93;;;23.30;99.90;;;;;;5043172;28;20471;-62
2023/06/22 00:41:29;;;;;;;13.00;12.00;;;23.20;99.90;;;;;;5044898;28;20453;-62
2023/06/22 00:43:55;;;;;;;13.57;12.47;;;23.30;99.90;;;;;;5046898;28;20185;-62
2023/06/22 00:46:22;;;;;;;13.70;12.60;;;23.20;99.90;;;;;;5042203;28;20473;-62
2023/06/22 00:48:48;;;;;;;12.73;11.50;;;23.30;99.90;;;;;;5052555;28;20185;-62
2023/06/22 00:51:14;;;;;;;14.03;12.37;;;23.30;99.90;;;;;;5052275;28;20428;-62
2023/06/22 00:53:41;;;;;;;13.23;12.10;;;23.30;99.90;;;;;;5052051;28;20424;-62
2023/06/22 00:56:08;;;;;;;12.63;11.63;;;23.20;99.90;;;;;;5054053;28;20408;-63
2023/06/22 00:58:36;;;;;;;13.10;12.10;;;23.20;99.90;;;;;;5046371;28;20429;-61
2023/06/22 01:01:02;;;;;;;12.40;11.50;;;23.20;99.90;;;;;;5044193;28;20448;-62
2023/06/22 01:03:28;;;;;;;11.47;10.67;;;23.20;99.90;;;;;;5053018;28;20433;-61
2023/06/22 01:06:08;;;;;;;13.13;12.03;;;23.20;99.90;;;;;;5053978;28;20487;-62
2023/06/22 01:08:48;;;;;;;13.90;12.50;;;23.20;99.90;;;;;;5049178;28;20184;-61
2023/06/22 01:11:23;;;;;;;12.93;11.93;;;23.10;99.90;;;;;;5054212;28;20466;-63
2023/06/22 01:14:06;;;;;;;14.33;13.13;;;23.00;99.90;;;;;;5053290;28;20416;-62
2023/06/22 01:16:35;;;;;;;12.77;11.77;;;22.90;99.90;;;;;;5053435;28;20393;-61
2023/06/22 01:19:13;;;;;;;11.27;10.50;;;22.90;99.90;;;;;;5052268;28;20465;-62
2023/06/22 01:21:38;;;;;;;11.50;10.50;;;22.90;99.90;;;;;;5049309;28;20486;-62
2023/06/22 01:24:23;;;;;;;11.40;10.60;;;23.00;99.90;;;;;;5053879;28;20397;-62
2023/06/22 01:26:58;;;;;;;10.33;9.63;;;23.00;99.90;;;;;;5052755;28;20403;-62
2023/06/22 01:29:25;;;;;;;10.63;9.73;;;23.00;99.90;;;;;;5052584;28;20597;-62
2023/06/22 01:31:54;;;;;;;10.60;9.83;;;23.10;99.90;;;;;;5053180;28;20497;-62
2023/06/22 01:34:21;;;;;;;10.60;9.70;;;23.00;99.90;;;;;;5052109;28;20424;-62
2023/06/22 01:36:47;;;;;;;11.43;10.60;;;23.00;99.90;;;;;;5052181;28;20427;-62
2023/06/22 01:39:13;;;;;;;11.97;11.00;;;22.90;99.90;;;;;;5052465;28;20486;-62
2023/06/22 01:41:42;;;;;;;11.50;10.60;;;22.70;99.90;;;;;;5052238;28;20452;-62
2023/06/22 01:44:09;;;;;;;11.37;10.33;;;22.70;99.90;;;;;;5033612;28;20463;-62
2023/06/22 01:46:36;;;;;;;11.60;10.70;;;22.70;99.90;;;;;;5043188;28;20435;-61
2023/06/22 01:49:03;;;;;;;11.80;10.90;;;22.70;99.90;;;;;;5050921;28;20416;-62
2023/06/22 01:51:30;;;;;;;11.00;10.20;;;22.70;99.90;;;;;;5050966;28;20911;-62
2023/06/22 01:53:55;;;;;;;11.33;10.43;;;22.80;99.90;;;;;;5032698;28;20413;-62
2023/06/22 01:56:21;;;;;;;11.20;10.10;;;22.80;99.90;;;;;;5033040;28;20412;-63
2023/06/22 01:58:57;;;;;;;10.93;10.03;;;22.90;99.90;;;;;;5020585;28;20180;-62
2023/06/22 02:01:31;;;;;;;10.40;9.60;;;22.90;99.90;;;;;;5052977;28;20233;-62
2023/06/22 02:04:08;;;;;;;10.93;10.23;;;22.90;99.90;;;;;;5051032;28;20467;-62
2023/06/22 02:06:37;;;;;;;10.57;9.77;;;23.00;99.90;;;;;;5037583;28;20835;-61
2023/06/22 02:09:10;;;;;;;11.20;10.30;;;23.00;99.90;;;;;;5051558;28;20424;-62
2023/06/22 02:11:37;;;;;;;11.07;10.27;;;22.90;99.90;;;;;;5052269;28;20397;-61
2023/06/22 02:14:05;;;;;;;11.97;10.77;;;23.00;99.90;;;;;;5052899;28;20806;-62
2023/06/22 02:16:35;;;;;;;12.47;11.20;;;22.90;99.90;;;;;;5052782;28;20401;-62
2023/06/22 02:19:06;;;;;;;14.27;11.10;;;22.90;99.90;;;;;;5051716;28;20507;-62
2023/06/22 02:21:32;;;;;;;19.40;12.87;;;22.90;99.90;;;;;;5047052;28;20452;-61
2023/06/22 02:23:58;;;;;;;17.83;12.93;;;22.90;99.90;;;;;;5036024;28;20409;-62
2023/06/22 02:26:26;;;;;;;27.70;12.90;;;22.90;99.90;;;;;;5032849;28;20496;-63
2023/06/22 02:28:52;;;;;;;19.23;12.27;;;22.90;99.90;;;;;;5036784;28;20817;-62
2023/06/22 02:31:19;;;;;;;24.57;13.67;;;23.00;99.90;;;;;;5052608;28;20435;-63
2023/06/22 02:33:45;;;;;;;25.97;12.70;;;22.90;99.90;;;;;;5050934;28;20170;-62
2023/06/22 02:36:13;;;;;;;19.70;11.73;;;22.90;99.90;;;;;;5052252;28;20408;-62
2023/06/22 02:38:45;;;;;;;15.70;13.77;;;22.90;99.90;;;;;;5049187;28;20458;-62
2023/06/22 02:41:13;;;;;;;21.47;13.77;;;22.90;99.90;;;;;;5052224;28;20280;-62
2023/06/22 02:43:38;;;;;;;18.10;12.97;;;22.90;99.90;;;;;;5039273;28;20460;-60
2023/06/22 02:46:04;;;;;;;14.40;12.27;;;22.90;99.90;;;;;;5039842;28;20448;-61
2023/06/22 02:48:30;;;;;;;14.90;12.50;;;22.90;99.90;;;;;;5035617;28;20618;-61
2023/06/22 02:50:55;;;;;;;12.83;11.73;;;22.80;99.90;;;;;;5013946;28;20257;-61
2023/06/22 02:53:21;;;;;;;14.30;12.97;;;22.80;99.90;;;;;;5032796;28;20193;-61
2023/06/22 02:55:47;;;;;;;14.33;13.23;;;22.80;99.90;;;;;;5034657;28;20203;-60
2023/06/22 02:58:12;;;;;;;14.23;13.00;;;22.80;99.90;;;;;;5052292;28;20557;-61
2023/06/22 03:00:39;;;;;;;14.17;12.87;;;22.80;99.90;;;;;;5046891;28;20170;-60
2023/06/22 03:03:05;;;;;;;14.63;13.33;;;22.80;99.90;;;;;;5014539;28;20674;-60
2023/06/22 03:05:32;;;;;;;14.23;12.87;;;22.70;99.90;;;;;;5045333;28;20434;-60
2023/06/22 03:07:58;;;;;;;14.87;13.60;;;22.80;99.90;;;;;;5051237;28;20166;-61
2023/06/22 03:10:24;;;;;;;13.93;12.73;;;22.80;99.90;;;;;;5043357;28;20531;-61
2023/06/22 03:12:50;;;;;;;13.83;12.60;;;22.80;99.90;;;;;;5049635;28;20676;-60
2023/06/22 03:15:17;;;;;;;12.17;11.17;;;22.80;99.90;;;;;;5052146;28;20170;-61
2023/06/22 03:17:42;;;;;;;13.17;11.80;;;22.70;99.90;;;;;;5049892;28;20432;-60
2023/06/22 03:20:10;;;;;;;13.27;12.10;;;22.70;99.90;;;;;;5052049;28;20410;-61
2023/06/22 03:22:40;;;;;;;13.63;12.53;;;22.70;99.90;;;;;;5050672;28;20194;-60
2023/06/22 03:25:09;;;;;;;13.13;12.03;;;22.70;99.90;;;;;;5052012;28;20462;-61
2023/06/22 03:27:37;;;;;;;14.10;13.00;;;22.70;99.90;;;;;;5046472;28;20424;-61
2023/06/22 03:30:03;;;;;;;14.27;13.00;;;22.60;99.90;;;;;;5046221;28;20508;-60
2023/06/22 03:32:28;;;;;;;14.70;13.30;;;22.60;99.90;;;;;;5043217;28;20522;-60
2023/06/22 03:34:58;;;;;;;13.40;12.23;;;22.60;99.90;;;;;;5046207;28;20432;-60
2023/06/22 03:37:27;;;;;;;14.17;13.07;;;22.60;99.90;;;;;;5049360;28;20633;-61
2023/06/22 03:39:53;;;;;;;12.77;11.77;;;22.60;99.90;;;;;;5045859;28;20475;-61
2023/06/22 03:42:19;;;;;;;14.63;13.60;;;22.60;99.90;;;;;;5038548;28;20468;-61
2023/06/22 03:44:45;;;;;;;14.60;13.30;;;22.60;99.90;;;;;;5042481;28;20445;-60
2023/06/22 03:47:11;;;;;;;14.67;13.47;;;22.60;99.90;;;;;;5046371;28;20174;-60
2023/06/22 03:49:36;;;;;;;13.70;12.60;;;22.60;99.90;;;;;;5049062;28;20174;-60
2023/06/22 03:52:03;;;;;;;13.40;12.40;;;22.60;99.90;;;;;;5045809;28;20641;-61
2023/06/22 03:54:29;;;;;;;12.80;11.90;;;22.60;99.90;;;;;;5035358;28;20519;-60
2023/06/22 03:56:57;;;;;;;14.37;13.27;;;22.60;99.90;;;;;;5041204;28;20421;-60
2023/06/22 03:59:23;;;;;;;14.37;13.27;;;22.60;99.90;;;;;;5054596;28;20404;-60
2023/06/22 04:01:49;;;;;;;13.50;12.50;;;22.60;99.90;;;;;;5051870;28;21031;-60
2023/06/22 04:04:15;;;;;;;13.07;11.83;;;22.50;99.90;;;;;;5055385;28;20204;-60
2023/06/22 04:06:40;;;;;;;14.70;13.50;;;22.40;99.90;;;;;;5043360;28;20417;-60
2023/06/22 04:09:06;;;;;;;15.03;13.47;;;22.30;99.90;;;;;;5035147;28;20194;-59
2023/06/22 04:11:32;;;;;;;14.80;13.60;;;22.20;99.90;;;;;;5049887;28;20252;-59
2023/06/22 04:13:58;;;;;;;14.73;13.53;;;22.20;99.90;;;;;;5054431;28;20401;-59
2023/06/22 04:16:23;;;;;;;14.33;13.03;;;22.10;99.90;;;;;;5055095;28;20176;-59
2023/06/22 04:18:49;;;;;;;15.77;14.47;;;22.10;99.90;;;;;;5053206;28;20219;-59
2023/06/22 04:21:15;;;;;;;13.80;12.70;;;22.20;99.90;;;;;;5034644;28;20244;-59
2023/06/22 04:23:41;;;;;;;13.10;12.10;;;22.20;99.90;;;;;;5034811;28;20610;-59
2023/06/22 04:26:06;;;;;;;15.70;14.47;;;22.30;99.90;;;;;;5037311;28;20257;-59
2023/06/22 04:28:35;;;;;;;15.90;14.60;;;22.30;99.90;;;;;;5052973;28;20693;-59
2023/06/22 04:31:03;;;;;;;14.40;13.00;;;22.30;99.90;;;;;;5053815;28;20797;-59
2023/06/22 04:33:29;;;;;;;18.53;16.63;;;22.40;99.90;;;;;;5046116;28;20428;-60
2023/06/22 04:35:57;;;;;;;15.10;13.77;;;22.50;99.90;;;;;;5033999;28;20405;-61
2023/06/22 04:38:23;;;;;;;16.37;14.97;;;22.40;99.90;;;;;;5046477;28;20184;-59
2023/06/22 04:40:49;;;;;;;18.93;17.33;;;22.30;99.90;;;;;;5035228;28;20409;-64
2023/06/22 04:43:15;;;;;;;19.20;17.30;;;22.30;99.90;;;;;;5036246;28;20463;-65
2023/06/22 04:45:41;;;;;;;18.87;17.03;;;22.30;99.90;;;;;;5040930;28;20420;-62
2023/06/22 04:48:09;;;;;;;18.53;16.90;;;22.40;99.90;;;;;;5039530;28;20177;-64
2023/06/22 04:50:37;;;;;;;20.37;18.53;;;22.60;99.90;;;;;;5051526;28;20493;-64
2023/06/22 04:53:05;;;;;;;19.77;18.00;;;22.80;99.90;;;;;;5043692;28;20428;-64
2023/06/22 04:55:32;;;;;;;19.60;17.60;;;23.10;99.90;;;;;;5037682;28;22269;-64
2023/06/22 04:58:04;;;;;;;19.23;17.60;;;23.30;99.90;;;;;;5032448;28;20437;-65
2023/06/22 05:00:30;;;;;;;30.67;27.50;;;23.30;99.90;;;;;;5046266;28;20427;-65
2023/06/22 05:02:57;;;;;;;17.53;16.03;;;23.50;99.90;;;;;;5044646;28;20444;-64
2023/06/22 05:05:24;;;;;;;18.27;16.57;;;23.60;99.90;;;;;;5051289;28;20837;-65
2023/06/22 05:07:52;;;;;;;16.70;15.10;;;23.80;99.90;;;;;;5053393;28;20400;-64
2023/06/22 05:10:19;;;;;;;25.43;22.77;;;23.90;99.90;;;;;;5044008;28;20508;-65
2023/06/22 05:12:46;;;;;;;32.83;29.37;;;24.10;99.90;;;;;;5039599;28;20425;-62
2023/06/22 05:15:12;;;;;;;18.60;17.00;;;24.10;99.90;;;;;;5049365;28;20482;-65
2023/06/22 05:17:42;;;;;;;16.50;15.10;;;24.20;99.90;;;;;;5053684;28;20424;-65
2023/06/22 05:20:12;;;;;;;21.00;19.10;;;24.30;99.90;;;;;;5035642;28;20174;-65
2023/06/22 05:22:39;;;;;;;21.10;18.93;;;24.40;99.90;;;;;;5047060;28;20456;-65
2023/06/22 05:25:09;;;;;;;15.50;14.43;;;24.40;99.90;;;;;;5038063;28;20463;-63
2023/06/22 05:27:39;;;;;;;15.27;14.10;;;24.30;99.90;;;;;;5035165;28;20416;-63
2023/06/22 05:30:06;;;;;;;15.73;14.37;;;23.90;99.90;;;;;;5033855;28;20401;-64
2023/06/22 05:32:33;;;;;;;14.90;13.80;;;23.80;99.90;;;;;;5045740;28;20431;-65
2023/06/22 05:34:59;;;;;;;17.10;15.53;;;23.50;99.90;;;;;;5034828;28;20404;-66
2023/06/22 05:37:26;;;;;;;17.63;16.13;;;23.40;99.90;;;;;;5053627;28;20411;-63
2023/06/22 05:39:51;;;;;;;16.13;14.83;;;23.30;99.90;;;;;;5052949;28;20967;-61
2023/06/22 05:42:17;;;;;;;16.50;15.17;;;23.20;99.90;;;;;;5059231;28;20452;-67
2023/06/22 05:44:43;;;;;;;16.23;14.90;;;23.10;99.90;;;;;;5054010;28;20200;-69
2023/06/22 05:47:09;;;;;;;16.30;14.87;;;23.00;99.90;;;;;;5053863;28;20443;-69
2023/06/22 05:49:35;;;;;;;16.10;14.80;;;22.90;99.90;;;;;;5054185;28;20809;-64
2023/06/22 05:52:01;;;;;;;17.20;15.60;;;22.90;99.90;;;;;;5057601;28;20259;-63
2023/06/22 05:54:29;;;;;;;16.67;15.07;;;23.00;99.90;;;;;;5053726;28;20244;-64
2023/06/22 05:56:55;;;;;;;15.43;14.20;;;22.90;99.90;;;;;;5053251;28;20176;-63
2023/06/22 05:59:21;;;;;;;17.17;15.43;;;22.90;99.90;;;;;;5061681;28;20491;-66
2023/06/22 06:01:50;;;;;;;31.53;27.27;;;22.90;99.90;;;;;;5054755;28;20204;-62
2023/06/22 06:04:18;;;;;;;32.33;29.23;;;22.90;99.90;;;;;;5056981;28;20181;-65
2023/06/22 06:06:46;;;;;;;30.60;27.40;;;23.20;99.90;;;;;;5067459;28;20466;-63
2023/06/22 06:09:12;;;;;;;28.90;25.87;;;23.40;99.90;;;;;;5056961;28;20852;-65
2023/06/22 06:11:38;;;;;;;24.73;22.43;;;23.50;99.90;;;;;;5070896;28;20446;-65
2023/06/22 06:14:04;;;;;;;21.57;19.57;;;23.70;99.90;;;;;;5072210;28;20498;-66
2023/06/22 06:16:30;;;;;;;20.70;18.80;;;23.90;99.90;;;;;;5072837;28;20490;-63
2023/06/22 06:18:56;;;;;;;20.90;18.97;;;24.10;99.90;;;;;;5056161;28;20169;-64
2023/06/22 06:21:22;;;;;;;19.90;18.20;;;24.20;99.90;;;;;;5058665;28;20208;-63
2023/06/22 06:23:48;;;;;;;19.30;17.87;;;24.40;99.90;;;;;;5060548;28;20182;-63
2023/06/22 06:26:16;;;;;;;17.50;16.00;;;24.50;99.90;;;;;;5057446;28;20768;-63
2023/06/22 06:28:43;;;;;;;20.20;18.60;;;24.50;99.90;;;;;;5069553;28;20412;-63
2023/06/22 06:31:09;;;;;;;17.50;16.10;;;24.60;99.90;;;;;;5063101;28;20408;-63
2023/06/22 06:33:35;;;;;;;16.07;14.67;;;24.70;99.90;;;;;;5057372;28;20758;-64
2023/06/22 06:36:03;;;;;;;16.70;15.33;;;24.70;99.90;;;;;;5057128;28;21182;-62
2023/06/22 06:38:30;;;;;;;18.10;16.37;;;24.80;99.90;;;;;;5063371;28;20426;-64
2023/06/22 06:40:56;;;;;;;19.87;17.87;;;24.80;99.90;;;;;;5031944;28;20405;-66
2023/06/22 06:43:24;;;;;;;26.37;18.80;;;24.80;99.90;;;;;;5033094;28;20500;-64
2023/06/22 06:45:50;;;;;;;19.17;17.13;;;24.70;99.90;;;;;;5035021;28;20504;-63
2023/06/22 06:48:17;;;;;;;23.57;21.10;;;24.70;99.90;;;;;;5027782;28;20514;-64
2023/06/22 06:50:43;;;;;;;22.93;20.33;;;24.50;99.90;;;;;;5052993;28;20416;-63
2023/06/22 06:53:09;;;;;;;19.37;17.67;;;24.40;99.90;;;;;;5049909;28;20454;-65
2023/06/22 06:55:35;;;;;;;19.50;17.70;;;24.30;99.90;;;;;;5052721;28;20392;-64
2023/06/22 06:58:04;;;;;;;21.03;19.23;;;24.20;99.90;;;;;;5050319;28;20424;-63
2023/06/22 07:00:29;;;;;;;20.10;18.50;;;24.10;99.90;;;;;;5052429;28;20196;-63
2023/06/22 07:02:55;;;;;;;21.93;20.20;;;24.10;99.90;;;;;;5040574;28;20939;-63
2023/06/22 07:05:21;;;;;;;19.60;18.00;;;24.10;99.90;;;;;;5037070;28;20186;-64
2023/06/22 07:07:47;;;;;;;18.57;16.97;;;24.00;99.90;;;;;;5025747;28;20219;-64
2023/06/22 07:10:13;;;;;;;19.23;17.60;;;24.00;99.90;;;;;;5038464;28;20232;-64
2023/06/22 07:12:38;;;;;;;20.23;18.30;;;23.90;99.90;;;;;;5052571;28;20521;-64
2023/06/22 07:15:07;;;;;;;18.30;16.87;;;23.90;99.90;;;;;;5033209;28;20174;-65
2023/06/22 07:17:34;;;;;;;22.47;20.57;;;23.80;99.90;;;;;;5032437;28;20508;-64
2023/06/22 07:20:01;;;;;;;21.93;20.03;;;23.80;99.90;;;;;;5031795;28;20400;-64
2023/06/22 07:22:26;;;;;;;20.27;18.57;;;23.80;99.90;;;;;;5032121;28;20534;-64
2023/06/22 07:24:52;;;;;;;19.70;18.00;;;23.70;99.90;;;;;;5031949;28;20868;-64
2023/06/22 07:27:21;;;;;;;21.47;19.60;;;23.70;99.90;;;;;;5036452;28;20552;-64
2023/06/22 07:29:47;;;;;;;19.37;17.67;;;23.80;99.90;;;;;;5036414;28;20174;-64
2023/06/22 07:32:12;;;;;;;18.07;16.43;;;23.70;99.90;;;;;;5043137;28;20451;-64
2023/06/22 07:34:38;;;;;;;18.60;17.10;;;23.80;99.90;;;;;;5036411;28;20413;-64
2023/06/22 07:37:04;;;;;;;18.83;17.23;;;23.80;99.90;;;;;;5045205;28;20645;-64
2023/06/22 07:39:30;;;;;;;19.17;17.57;;;23.80;99.90;;;;;;5035471;28;20225;-64
2023/06/22 07:41:56;;;;;;;21.90;19.97;;;23.80;99.90;;;;;;5037087;28;20471;-64
2023/06/22 07:44:22;;;;;;;19.33;17.50;;;23.80;99.90;;;;;;5023041;28;20229;-64
2023/06/22 07:46:47;;;;;;;19.27;17.57;;;23.90;99.90;;;;;;5038842;28;20192;-64
2023/06/22 07:49:13;;;;;;;19.03;17.13;;;23.90;99.90;;;;;;5041828;28;20213;-64
2023/06/22 07:51:39;;;;;;;19.57;17.90;;;23.90;99.90;;;;;;5036534;28;20178;-63
2023/06/22 07:54:04;;;;;;;19.40;17.70;;;23.90;99.90;;;;;;5047027;28;20181;-64
2023/06/22 07:56:30;;;;;;;19.27;17.67;;;24.00;99.90;;;;;;5052359;28;20174;-66
2023/06/22 07:58:58;;;;;;;19.00;17.40;;;24.00;99.90;;;;;;5052395;28;20187;-64
2023/06/22 08:01:24;;;;;;;18.10;16.60;;;24.00;99.90;;;;;;5047771;28;20699;-64
2023/06/22 08:03:50;;;;;;;18.63;17.10;;;24.10;99.90;;;;;;5055854;28;20416;-64
2023/06/22 08:06:16;;;;;;;24.47;22.27;;;24.10;99.90;;;;;;5035296;28;20776;-64
2023/06/22 08:08:42;;;;;;;19.27;17.30;;;24.10;99.90;;;;;;5052337;28;20430;-64
2023/06/22 08:11:08;;;;;;;18.23;16.60;;;24.20;99.90;;;;;;5053632;28;20774;-63
2023/06/22 08:13:34;;;;;;;17.37;16.07;;;24.20;99.90;;;;;;5035108;28;20428;-64
2023/06/22 08:16:00;;;;;;;19.50;18.13;;;24.40;99.90;;;;;;5034735;28;20428;-64
2023/06/22 08:18:26;;;;;;;20.23;18.60;;;24.50;99.90;;;;;;5035182;28;20174;-65
2023/06/22 08:20:52;;;;;;;20.83;19.17;;;24.50;99.90;;;;;;5035470;28;20185;-65
2023/06/22 08:23:18;;;;;;;17.80;16.30;;;24.50;99.90;;;;;;5016974;28;20214;-65
2023/06/22 08:25:44;;;;;;;17.30;15.90;;;24.70;99.90;;;;;;5036558;28;20424;-65
2023/06/22 08:28:10;;;;;;;15.23;13.93;;;24.90;99.90;;;;;;5043763;28;20174;-64
2023/06/22 08:30:35;;;;;;;16.70;15.10;;;25.20;99.90;;;;;;5042670;28;20547;-64
2023/06/22 08:33:01;;;;;;;15.30;14.10;;;25.40;99.90;;;;;;5054688;28;20174;-64
2023/06/22 08:35:27;;;;;;;16.43;15.00;;;25.60;99.90;;;;;;5036644;28;20193;-63
2023/06/22 08:37:54;;;;;;;18.33;16.63;;;25.70;99.90;;;;;;5033125;28;20539;-63
2023/06/22 08:40:20;;;;;;;15.13;13.73;;;25.80;99.90;;;;;;5035408;28;20256;-62
2023/06/22 08:42:47;;;;;;;16.30;14.80;;;25.90;99.90;;;;;;5035270;28;20865;-63
2023/06/22 08:45:13;;;;;;;16.93;15.63;;;25.90;99.90;;;;;;5040124;28;20457;-63
2023/06/22 08:47:40;;;;;;;15.50;14.10;;;26.10;99.90;;;;;;5044166;28;20415;-64
2023/06/22 08:50:08;;;;;;;15.30;14.10;;;26.20;99.90;;;;;;5038091;28;20412;-61
2023/06/22 08:52:34;;;;;;;17.13;15.83;;;26.40;99.90;;;;;;5038484;28;20515;-63
2023/06/22 08:55:00;;;;;;;16.67;15.33;;;26.50;99.90;;;;;;5033836;28;20428;-62
2023/06/22 08:57:27;;;;;;;16.33;15.03;;;26.70;99.90;;;;;;5034636;28;20439;-63
2023/06/22 08:59:53;;;;;;;17.53;16.17;;;26.80;99.90;;;;;;5034323;28;20174;-63
2023/06/22 09:02:19;;;;;;;20.10;18.60;;;26.90;99.90;;;;;;5035146;28;20970;-63
2023/06/22 09:04:49;;;;;;;16.97;15.60;;;27.10;99.90;;;;;;5034719;28;20432;-63
2023/06/22 09:07:22;;;;;;;17.10;15.80;;;27.20;99.90;;;;;;5053217;28;20423;-63
2023/06/22 09:09:48;;;;;;;17.77;16.37;;;27.30;99.90;;;;;;5046434;28;20425;-63
2023/06/22 09:12:14;;;;;;;17.60;16.10;;;27.40;99.90;;;;;;5036090;28;20433;-63
2023/06/22 09:14:42;;;;;;;16.33;15.03;;;27.60;99.90;;;;;;5054589;28;20396;-63
2023/06/22 09:17:08;;;;;;;15.17;13.87;;;27.70;99.90;;;;;;5035910;28;20936;-63
2023/06/22 09:19:34;;;;;;;16.57;15.27;;;27.80;99.90;;;;;;5034035;28;20468;-63
2023/06/22 09:22:00;;;;;;;14.57;13.57;;;28.00;99.90;;;;;;5033652;28;20224;-63
2023/06/22 09:24:26;;;;;;;14.63;13.43;;;28.00;99.90;;;;;;5033896;28;20193;-63
2023/06/22 09:26:52;;;;;;;15.83;14.53;;;28.20;99.90;;;;;;5033846;28;20433;-63
2023/06/22 09:29:17;;;;;;;14.70;13.60;;;28.20;99.90;;;;;;5032951;28;20543;-63
2023/06/22 09:31:44;;;;;;;22.57;20.70;;;28.30;99.90;;;;;;5034543;28;20167;-63
2023/06/22 09:34:09;;;;;;;15.60;14.40;;;28.40;99.90;;;;;;5033237;28;20517;-63
2023/06/22 09:36:35;;;;;;;14.37;13.17;;;28.40;99.90;;;;;;5033776;28;20539;-63
2023/06/22 09:39:05;;;;;;;17.73;16.43;;;28.60;99.90;;;;;;5033510;28;20543;-63
2023/06/22 09:41:31;;;;;;;14.83;13.63;;;28.60;99.70;;;;;;5033455;28;20224;-63
2023/06/22 09:43:57;;;;;;;13.17;12.17;;;28.60;99.90;;;;;;5016230;28;20421;-64
2023/06/22 09:46:26;;;;;;;13.67;12.60;;;28.60;99.40;;;;;;5051094;28;20178;-63
2023/06/22 09:48:52;;;;;;;16.27;15.03;;;28.60;99.00;;;;;;5044016;28;20557;-63
2023/06/22 09:51:19;;;;;;;17.50;16.30;;;28.50;99.10;;;;;;5033289;28;20688;-63
2023/06/22 09:53:45;;;;;;;14.80;13.60;;;28.40;99.10;;;;;;5049270;28;20679;-63
2023/06/22 09:56:14;;;;;;;14.40;13.27;;;28.30;99.60;;;;;;5040947;28;20421;-63
2023/06/22 09:58:41;;;;;;;15.33;14.23;;;28.20;99.90;;;;;;5032772;28;20178;-63
2023/06/22 10:01:07;;;;;;;15.40;14.10;;;28.20;99.90;;;;;;5032940;28;20408;-63
2023/06/22 10:03:33;;;;;;;16.13;14.93;;;28.20;99.90;;;;;;5015628;28;21011;-63
2023/06/22 10:05:59;;;;;;;17.70;15.93;;;28.10;99.90;;;;;;5032960;28;20166;-62
2023/06/22 10:08:24;;;;;;;16.50;15.30;;;28.00;99.90;;;;;;5033722;28;20210;-63
2023/06/22 10:10:50;;;;;;;16.80;15.30;;;27.90;99.90;;;;;;5033022;28;20506;-63
2023/06/22 10:13:16;;;;;;;17.07;15.50;;;27.90;99.90;;;;;;5033215;28;20189;-63
2023/06/22 10:15:42;;;;;;;16.47;15.17;;;28.00;99.90;;;;;;5032920;28;20174;-63
2023/06/22 10:18:08;;;;;;;18.07;16.77;;;28.00;99.90;;;;;;5032244;28;20519;-63
2023/06/22 10:20:34;;;;;;;16.33;15.03;;;27.90;99.90;;;;;;5033511;28;20393;-63
2023/06/22 10:23:00;;;;;;;21.77;20.17;;;28.00;99.90;;;;;;5032743;28;20201;-63
2023/06/22 10:25:26;;;;;;;19.70;18.10;;;27.90;99.90;;;;;;5040944;28;20268;-63
2023/06/22 10:27:52;;;;;;;21.90;19.80;;;27.80;99.90;;;;;;5053094;28;20389;-63
2023/06/22 10:30:18;;;;;;;18.40;16.97;;;27.70;99.90;;;;;;5033440;28;20740;-63
2023/06/22 10:32:44;;;;;;;17.27;15.97;;;27.70;99.90;;;;;;5051305;28;20213;-63
2023/06/22 10:35:15;;;;;;;18.63;17.13;;;27.70;99.90;;;;;;5048754;28;20186;-63
2023/06/22 10:37:43;;;;;;;19.00;17.33;;;27.70;99.90;;;;;;5032818;28;20599;-64
2023/06/22 10:40:09;;;;;;;17.20;15.60;;;27.70;99.90;;;;;;5031415;28;20475;-63
2023/06/22 10:42:35;;;;;;;15.50;14.10;;;27.70;99.90;;;;;;5032250;28;20467;-63
2023/06/22 10:45:00;;;;;;;14.50;13.17;;;27.60;99.90;;;;;;5032999;28;20503;-63
2023/06/22 10:47:26;;;;;;;14.93;13.77;;;27.60;99.90;;;;;;5032372;28;20233;-63
2023/06/22 10:49:52;;;;;;;14.43;13.10;;;27.60;99.90;;;;;;5032704;28;20429;-64
2023/06/22 10:52:18;;;;;;;15.37;14.03;;;27.50;99.90;;;;;;5031975;28;20178;-63
2023/06/22 10:54:43;;;;;;;15.70;14.30;;;27.40;99.90;;;;;;5032260;28;20174;-64
2023/06/22 10:57:09;;;;;;;16.00;14.50;;;27.40;99.90;;;;;;5014301;28;20182;-63
2023/06/22 10:59:35;;;;;;;14.70;13.50;;;27.40;99.90;;;;;;5032388;28;20183;-63
2023/06/22 11:02:00;;;;;;;13.70;12.63;;;27.20;99.90;;;;;;5051172;28;20200;-63
2023/06/22 11:04:26;;;;;;;14.00;13.00;;;27.10;99.90;;;;;;5036538;28;20186;-63
2023/06/22 11:06:52;;;;;;;13.70;12.60;;;27.00;99.90;;;;;;5032075;28;20174;-63
2023/06/22 11:09:20;;;;;;;13.90;12.70;;;27.00;99.90;;;;;;5032074;28;20206;-63
2023/06/22 11:11:50;;;;;;;15.40;14.10;;;27.00;99.90;;;;;;5032067;28;20186;-63
2023/06/22 11:14:17;;;;;;;14.43;13.23;;;26.90;99.90;;;;;;5041530;28;20597;-63
2023/06/22 11:16:42;;;;;;;16.57;15.17;;;26.90;99.90;;;;;;5051723;28;20449;-63
2023/06/22 11:19:08;;;;;;;16.40;15.00;;;26.90;99.90;;;;;;5050926;28;20428;-62
2023/06/22 11:21:34;;;;;;;16.00;14.50;;;26.80;99.90;;;;;;5040008;28;20206;-63
2023/06/22 11:24:00;;;;;;;15.40;14.10;;;26.70;99.90;;;;;;5032163;28;20209;-63
2023/06/22 11:26:29;;;;;;;16.43;15.13;;;26.60;99.90;;;;;;5014385;28;20185;-63
2023/06/22 11:28:55;;;;;;;16.93;15.47;;;26.50;99.90;;;;;;5032014;28;20770;-63
2023/06/22 11:31:21;;;;;;;17.10;15.80;;;26.40;99.90;;;;;;5031110;28;20513;-63
2023/06/22 11:33:47;;;;;;;16.60;15.00;;;26.20;99.90;;;;;;5032695;28;20401;-63
2023/06/22 11:36:14;;;;;;;18.70;17.00;;;26.10;99.90;;;;;;5031233;28;20182;-63
2023/06/22 11:38:40;;;;;;;19.80;18.00;;;26.00;99.90;;;;;;5031677;28;20495;-63
2023/06/22 11:41:06;;;;;;;19.00;17.30;;;26.00;99.90;;;;;;5031642;28;20436;-61
2023/06/22 11:43:32;;;;;;;21.20;19.30;;;26.00;99.90;;;;;;5031350;28;20190;-64
2023/06/22 11:45:58;;;;;;;21.30;19.47;;;25.90;99.90;;;;;;5031889;28;20773;-63
2023/06/22 11:48:26;;;;;;;19.67;17.97;;;25.90;99.90;;;;;;5031173;28;20186;-63
2023/06/22 11:50:53;;;;;;;20.47;18.87;;;25.80;99.90;;;;;;5046921;28;20178;-64
2023/06/22 11:53:21;;;;;;;19.07;17.37;;;25.60;99.90;;;;;;5045924;28;20558;-63
2023/06/22 11:55:47;;;;;;;21.03;18.97;;;25.60;99.90;;;;;;5049889;28;20965;-64
2023/06/22 11:58:13;;;;;;;21.67;16.10;;;25.60;99.90;;;;;;5035037;28;20755;-63
2023/06/22 12:00:39;;;;;;;18.80;17.20;;;25.60;99.90;;;;;;5040316;28;20431;-63
2023/06/22 12:03:04;;;;;;;18.50;16.90;;;25.60;99.90;;;;;;5050856;28;20655;-62
2023/06/22 12:05:30;;;;;;;18.73;17.13;;;25.50;99.90;;;;;;5014085;28;20265;-63
2023/06/22 12:07:56;;;;;;;22.23;20.37;;;25.40;99.90;;;;;;5031640;28;20618;-63
2023/06/22 12:10:23;;;;;;;19.37;17.40;;;25.40;99.90;;;;;;5032259;28;20232;-63
2023/06/22 12:12:48;;;;;;;21.80;19.87;;;25.30;99.90;;;;;;5043728;28;20186;-63
2023/06/22 12:15:14;;;;;;;19.67;17.97;;;25.30;99.90;;;;;;5038064;28;20444;-63
2023/06/22 12:17:40;;;;;;;18.87;17.20;;;25.30;99.90;;;;;;5041517;28;20212;-63
2023/06/22 12:20:07;;;;;;;18.50;17.00;;;25.10;99.90;;;;;;5034848;28;20185;-62
2023/06/22 12:22:33;;;;;;;18.63;17.07;;;25.10;99.90;;;;;;5049451;28;20459;-62
2023/06/22 12:25:00;;;;;;;20.17;18.37;;;25.10;99.90;;;;;;5042225;28;20417;-62
2023/06/22 12:27:26;;;;;;;19.23;17.53;;;25.10;99.90;;;;;;5043272;28;20409;-61